createdAt,value
2023-04-25T00:02:08.194Z,55.33
2023-04-25T00:04:40.241Z,55.54
2023-04-25T00:07:11.670Z,55.66
2023-04-25T00:09:42.530Z,55.58
2023-04-25T00:12:13.282Z,55.45
2023-04-25T00:14:43.994Z,55.49
2023-04-25T00:17:14.675Z,55.69
2023-04-25T00:19:47.380Z,55.68
2023-04-25T00:22:18.540Z,55.57
2023-04-25T00:24:49.315Z,55.64
2023-04-25T00:27:20.020Z,55.79
2023-04-25T00:29:50.811Z,55.87
2023-04-25T00:32:21.520Z,55.77
2023-04-25T00:34:52.311Z,55.83
2023-04-25T00:37:23.226Z,55.88
2023-04-25T00:39:55.981Z,56.08
2023-04-25T00:42:26.986Z,55.99
2023-04-25T00:44:59.137Z,56.05
2023-04-25T00:47:30.221Z,56.08
2023-04-25T00:50:01.115Z,56.10
2023-04-25T00:52:31.929Z,56.08
2023-04-25T00:55:02.960Z,56.07
2023-04-25T00:57:34.027Z,56.18
2023-04-25T01:00:07.649Z,56.21
2023-04-25T01:02:38.781Z,56.33
2023-04-25T01:05:10.609Z,56.33
2023-04-25T01:07:41.690Z,56.59
2023-04-25T01:10:13.007Z,56.51
2023-04-25T01:12:44.222Z,56.46
2023-04-25T01:15:15.030Z,56.57
2023-04-25T01:17:46.104Z,56.53
2023-04-25T01:20:17.730Z,56.61
2023-04-25T01:22:48.593Z,56.49
2023-04-25T01:25:19.698Z,56.78
2023-04-25T01:27:50.740Z,56.77
2023-04-25T01:30:21.822Z,56.82
2023-04-25T01:32:53.136Z,56.85
2023-04-25T01:35:25.078Z,56.72
2023-04-25T01:37:58.241Z,56.79
2023-04-25T01:40:29.551Z,56.80
2023-04-25T01:43:01.808Z,56.83
2023-04-25T01:45:34.126Z,57.05
2023-04-25T01:48:05.360Z,57.22
2023-04-25T01:50:36.339Z,57.36
2023-04-25T01:53:07.485Z,57.21
2023-04-25T01:55:38.224Z,57.56
2023-04-25T01:58:14.008Z,57.39
2023-04-25T02:01:05.096Z,57.56
2023-04-25T02:03:39.840Z,57.36
2023-04-25T02:06:14.936Z,57.27
2023-04-25T02:08:48.620Z,57.44
2023-04-25T02:11:19.417Z,57.36
2023-04-25T02:13:58.598Z,57.37
2023-04-25T02:16:46.046Z,57.74
2023-04-25T02:19:16.881Z,57.46
2023-04-25T02:21:47.534Z,57.59
2023-04-25T02:24:18.289Z,57.49
2023-04-25T02:26:50.423Z,57.72
2023-04-25T02:29:21.220Z,57.83
2023-04-25T02:31:52.072Z,57.68
2023-04-25T02:34:23.373Z,57.77
2023-04-25T02:36:54.032Z,57.80
2023-04-25T02:39:26.211Z,57.70
2023-04-25T02:41:56.957Z,57.78
2023-04-25T02:44:27.818Z,57.78
2023-04-25T02:46:58.614Z,57.72
2023-04-25T02:49:29.324Z,57.66
2023-04-25T02:52:00.211Z,57.83
2023-04-25T02:54:32.023Z,58.16
2023-04-25T02:57:03.654Z,57.84
2023-04-25T02:59:38.323Z,57.89
2023-04-25T03:02:09.146Z,57.87
2023-04-25T03:04:40.046Z,57.92
2023-04-25T03:07:10.957Z,57.90
2023-04-25T03:09:41.647Z,58.02
2023-04-25T03:12:12.423Z,58.02
2023-04-25T03:14:43.079Z,58.01
2023-04-25T03:17:13.899Z,58.00
2023-04-25T03:19:44.639Z,58.11
2023-04-25T03:22:15.622Z,58.46
2023-04-25T03:24:46.465Z,59.00
2023-04-25T03:27:18.486Z,58.19
2023-04-25T03:29:49.296Z,58.39
2023-04-25T03:32:20.197Z,58.12
2023-04-25T03:34:51.135Z,58.48
2023-04-25T03:37:21.884Z,58.64
2023-04-25T03:39:53.168Z,58.54
2023-04-25T03:42:25.987Z,58.54
2023-04-25T03:44:57.084Z,58.33
2023-04-25T03:47:28.364Z,58.70
2023-04-25T03:49:59.384Z,58.45
2023-04-25T03:52:30.441Z,58.34
2023-04-25T03:55:01.214Z,58.29
2023-04-25T03:57:32.606Z,58.61
2023-04-25T04:00:05.430Z,58.45
2023-04-25T04:02:45.572Z,58.69
2023-04-25T04:05:17.307Z,58.39
2023-04-25T04:07:54.469Z,58.65
2023-04-25T04:10:27.188Z,58.50
2023-04-25T04:12:59.744Z,58.71
2023-04-25T04:15:30.506Z,58.61
2023-04-25T04:18:03.859Z,58.98
2023-04-25T04:20:35.245Z,58.85
2023-04-25T04:23:07.627Z,58.46
2023-04-25T04:25:38.452Z,58.54
2023-04-25T04:28:14.636Z,59.00
2023-04-25T04:31:05.006Z,58.48
2023-04-25T04:33:35.909Z,58.63
2023-04-25T04:36:10.952Z,58.72
2023-04-25T04:38:43.503Z,58.68
2023-04-25T04:41:22.375Z,58.51
2023-04-25T04:44:11.229Z,58.36
2023-04-25T04:47:09.328Z,58.59
2023-04-25T04:49:58.859Z,58.43
2023-04-25T04:52:45.997Z,58.53
2023-04-25T04:55:35.116Z,58.94
2023-04-25T04:58:14.164Z,58.69
2023-04-25T05:01:03.223Z,58.72
2023-04-25T05:03:42.439Z,58.60
2023-04-25T05:06:42.692Z,58.73
2023-04-25T05:09:31.739Z,58.87
2023-04-25T05:12:25.258Z,58.54
2023-04-25T05:15:03.558Z,58.76
2023-04-25T05:17:52.725Z,58.85
2023-04-25T05:20:23.542Z,58.81
2023-04-25T05:22:56.813Z,58.79
2023-04-25T05:25:56.394Z,58.74
2023-04-25T05:28:45.887Z,58.86
2023-04-25T05:31:33.772Z,58.93
2023-04-25T05:34:08.933Z,58.85
2023-04-25T05:36:49.493Z,58.87
2023-04-25T05:39:20.345Z,58.81
2023-04-25T05:42:11.556Z,58.80
2023-04-25T05:45:01.681Z,58.96
2023-04-25T05:47:52.549Z,58.92
2023-04-25T05:50:33.283Z,58.95
2023-04-25T05:53:16.488Z,58.89
2023-04-25T05:55:48.578Z,58.92
2023-04-25T05:58:26.060Z,58.97
2023-04-25T06:00:58.110Z,58.92
2023-04-25T06:03:29.111Z,58.80
2023-04-25T06:06:01.516Z,58.99
2023-04-25T06:08:32.948Z,59.15
2023-04-25T06:11:03.646Z,59.17
2023-04-25T06:13:34.512Z,59.03
2023-04-25T06:16:05.806Z,58.90
2023-04-25T06:18:36.856Z,58.91
2023-04-25T06:21:09.371Z,58.95
2023-04-25T06:23:40.139Z,58.90
2023-04-25T06:26:12.366Z,59.07
2023-04-25T06:28:44.542Z,59.16
2023-04-25T06:31:16.111Z,59.05
2023-04-25T06:33:47.683Z,59.23
2023-04-25T06:36:18.593Z,59.22
2023-04-25T06:38:51.093Z,59.33
2023-04-25T06:41:22.207Z,59.25
2023-04-25T06:43:52.896Z,59.07
2023-04-25T06:46:37.470Z,59.22
2023-04-25T06:49:08.720Z,59.10
2023-04-25T06:51:40.260Z,59.33
2023-04-25T06:54:11.060Z,59.35
2023-04-25T06:56:47.225Z,59.29
2023-04-25T06:59:19.366Z,59.55
2023-04-25T07:01:50.587Z,59.23
2023-04-25T07:04:29.071Z,59.08
2023-04-25T07:07:02.130Z,59.04
2023-04-25T07:09:38.356Z,58.87
2023-04-25T07:12:09.502Z,59.04
2023-04-25T07:14:40.378Z,59.21
2023-04-25T07:17:11.388Z,59.17
2023-04-25T07:19:42.138Z,59.06
2023-04-25T07:22:13.094Z,59.08
2023-04-25T07:24:48.433Z,59.02
2023-04-25T07:27:19.945Z,59.24
2023-04-25T07:30:00.664Z,58.90
2023-04-25T07:32:31.449Z,59.05
2023-04-25T07:35:02.879Z,59.07
2023-04-25T07:37:34.050Z,59.05
2023-04-25T07:40:10.633Z,59.02
2023-04-25T07:42:44.561Z,59.10
2023-04-25T07:45:16.538Z,59.03
2023-04-25T07:47:47.950Z,59.12
2023-04-25T07:50:19.053Z,59.05
2023-04-25T07:52:51.320Z,59.05
2023-04-25T07:55:33.118Z,59.20
2023-04-25T07:58:08.199Z,58.99
2023-04-25T08:00:41.082Z,59.14
2023-04-25T08:03:47.343Z,59.20
2023-04-25T08:06:24.413Z,59.06
2023-04-25T08:09:10.179Z,59.21
2023-04-25T08:11:43.948Z,59.18
2023-04-25T08:14:16.324Z,59.07
2023-04-25T08:16:48.625Z,59.08
2023-04-25T08:19:20.076Z,59.08
2023-04-25T08:21:52.956Z,58.98
2023-04-25T08:24:26.963Z,59.03
2023-04-25T08:27:00.087Z,58.86
2023-04-25T08:29:31.905Z,58.91
2023-04-25T08:32:03.092Z,58.83
2023-04-25T08:34:34.141Z,58.87
2023-04-25T08:37:07.963Z,58.88
2023-04-25T08:39:44.453Z,58.94
2023-04-25T08:42:43.205Z,58.86
2023-04-25T08:45:14.328Z,58.84
2023-04-25T08:47:47.701Z,58.97
2023-04-25T08:50:20.369Z,58.81
2023-04-25T08:52:53.605Z,58.92
2023-04-25T08:55:25.896Z,59.17
2023-04-25T08:57:59.946Z,59.03
2023-04-25T09:00:31.345Z,58.98
2023-04-25T09:03:02.415Z,59.04
2023-04-25T09:05:36.573Z,58.89
2023-04-25T09:08:07.506Z,58.76
2023-04-25T09:10:38.542Z,58.70
2023-04-25T09:13:11.614Z,58.87
2023-04-25T09:16:04.550Z,58.72
2023-04-25T09:18:48.346Z,58.87
2023-04-25T09:21:19.746Z,58.81
2023-04-25T09:23:52.863Z,58.90
2023-04-25T09:26:24.487Z,58.96
2023-04-25T09:29:06.953Z,58.82
2023-04-25T09:31:38.413Z,58.90
2023-04-25T09:34:13.076Z,58.83
2023-04-25T09:36:47.741Z,58.78
2023-04-25T09:39:57.359Z,58.75
2023-04-25T09:42:30.119Z,58.66
2023-04-25T09:45:02.944Z,58.60
2023-04-25T09:47:39.932Z,58.31
2023-04-25T09:50:17.515Z,58.39
2023-04-25T09:53:04.409Z,58.36
2023-04-25T09:55:42.177Z,58.29
2023-04-25T09:58:13.792Z,58.23
2023-04-25T10:00:44.990Z,58.34
2023-04-25T10:03:26.660Z,58.14
2023-04-25T10:06:19.940Z,58.12
2023-04-25T10:08:53.315Z,58.09
2023-04-25T10:11:25.259Z,58.17
2023-04-25T10:13:56.158Z,58.16
2023-04-25T10:16:27.057Z,58.31
2023-04-25T10:18:57.885Z,58.06
2023-04-25T10:21:31.631Z,58.02
2023-04-25T10:24:02.831Z,58.04
2023-04-25T10:26:34.198Z,57.96
2023-04-25T10:29:05.717Z,57.95
2023-04-25T10:31:46.477Z,57.90
2023-04-25T10:34:17.695Z,57.91
2023-04-25T10:36:53.620Z,57.84
2023-04-25T10:39:29.058Z,58.04
2023-04-25T10:42:00.265Z,58.06
2023-04-25T10:44:31.511Z,58.00
2023-04-25T10:47:04.295Z,57.92
2023-04-25T10:49:36.216Z,57.97
2023-04-25T10:52:27.663Z,58.09
2023-04-25T10:54:59.461Z,58.01
2023-04-25T10:57:34.587Z,57.95
2023-04-25T11:00:10.739Z,57.56
2023-04-25T11:02:44.071Z,57.86
2023-04-25T11:05:21.312Z,57.76
2023-04-25T11:08:03.921Z,57.68
2023-04-25T11:10:38.217Z,57.66
2023-04-25T11:13:08.873Z,57.55
2023-04-25T11:15:39.606Z,57.38
2023-04-25T11:18:10.452Z,57.40
2023-04-25T11:20:41.352Z,57.42
2023-04-25T11:23:12.268Z,57.35
2023-04-25T11:25:43.025Z,57.41
2023-04-25T11:28:13.849Z,57.27
2023-04-25T11:30:50.139Z,57.35
2023-04-25T11:33:25.298Z,57.39
2023-04-25T11:35:57.734Z,57.16
2023-04-25T11:38:29.540Z,57.11
2023-04-25T11:41:01.113Z,57.25
2023-04-25T11:43:33.290Z,57.08
2023-04-25T11:46:08.641Z,57.08
2023-04-25T11:48:43.171Z,56.73
2023-04-25T11:51:14.476Z,56.86
2023-04-25T11:53:46.712Z,56.87
2023-04-25T11:56:17.458Z,56.74
2023-04-25T11:58:57.758Z,56.67
2023-04-25T12:01:31.483Z,56.47
2023-04-25T12:04:14.010Z,56.51
2023-04-25T12:06:47.779Z,56.77
2023-04-25T12:09:20.267Z,56.52
2023-04-25T12:11:55.073Z,56.53
2023-04-25T12:14:28.069Z,56.57
2023-04-25T12:16:59.622Z,56.55
2023-04-25T12:19:34.265Z,56.61
2023-04-25T12:22:05.475Z,56.42
2023-04-25T12:24:38.989Z,56.31
2023-04-25T12:27:10.203Z,56.42
2023-04-25T12:29:49.725Z,56.50
2023-04-25T12:32:20.876Z,56.48
2023-04-25T12:34:51.500Z,56.44
2023-04-25T12:37:22.462Z,56.52
2023-04-25T12:39:53.176Z,56.26
2023-04-25T12:42:23.930Z,56.39
2023-04-25T12:44:54.670Z,56.45
2023-04-25T12:47:25.585Z,56.46
2023-04-25T12:49:56.283Z,56.32
2023-04-25T12:52:27.162Z,56.42
2023-04-25T12:54:57.908Z,56.33
2023-04-25T12:57:28.699Z,56.20
2023-04-25T12:59:59.394Z,56.34
2023-04-25T13:02:30.239Z,56.17
2023-04-25T13:05:01.261Z,56.14
2023-04-25T13:07:33.452Z,56.08
2023-04-25T13:10:04.885Z,56.13
2023-04-25T13:12:35.648Z,56.20
2023-04-25T13:15:08.053Z,56.17
2023-04-25T13:17:38.819Z,56.08
2023-04-25T13:20:10.878Z,55.96
2023-04-25T13:22:41.728Z,55.98
2023-04-25T13:25:12.449Z,56.06
2023-04-25T13:27:45.326Z,55.87
2023-04-25T13:30:16.162Z,55.81
2023-04-25T13:32:47.005Z,55.69
2023-04-25T13:35:18.841Z,55.72
2023-04-25T13:37:49.578Z,55.87
2023-04-25T13:40:20.325Z,55.94
2023-04-25T13:42:52.177Z,55.92
2023-04-25T13:45:23.333Z,55.79
2023-04-25T13:47:54.138Z,55.74
2023-04-25T13:50:24.941Z,55.79
2023-04-25T13:52:55.761Z,55.82
2023-04-25T13:55:26.564Z,55.64
2023-04-25T13:57:57.361Z,55.75
2023-04-25T14:00:28.137Z,55.71
2023-04-25T14:02:58.990Z,55.75
2023-04-25T14:05:29.813Z,55.79
2023-04-25T14:08:02.258Z,55.84
2023-04-25T14:10:33.301Z,55.77
2023-04-25T14:13:04.933Z,55.76
2023-04-25T14:15:36.110Z,55.85
2023-04-25T14:18:07.140Z,55.81
2023-04-25T14:20:38.013Z,55.78
2023-04-25T14:23:08.816Z,55.68
2023-04-25T14:25:39.552Z,55.73
2023-04-25T14:28:10.497Z,55.75
2023-04-25T14:30:41.168Z,55.76
2023-04-25T14:33:12.303Z,55.64
2023-04-25T14:35:43.033Z,55.78
2023-04-25T14:38:14.087Z,55.68
2023-04-25T14:40:45.173Z,55.68
2023-04-25T14:43:15.914Z,55.63
2023-04-25T14:45:46.928Z,55.57
2023-04-25T14:48:19.217Z,55.63
2023-04-25T14:50:50.094Z,55.60
2023-04-25T14:53:20.938Z,55.58
2023-04-25T14:55:51.647Z,55.58
2023-04-25T14:58:22.516Z,55.62
2023-04-25T15:00:53.417Z,55.64
2023-04-25T15:03:24.366Z,55.65
2023-04-25T15:05:57.165Z,55.59
2023-04-25T15:08:28.111Z,55.62
2023-04-25T15:10:59.024Z,55.65
2023-04-25T15:13:30.027Z,55.71
2023-04-25T15:16:00.835Z,55.71
2023-04-25T15:18:31.677Z,55.79
2023-04-25T15:21:02.403Z,55.78
2023-04-25T15:23:33.181Z,55.77
2023-04-25T15:26:03.957Z,55.78
2023-04-25T15:28:35.232Z,55.77
2023-04-25T15:31:06.046Z,55.80
2023-04-25T15:33:36.870Z,55.69
2023-04-25T15:36:08.159Z,55.68
2023-04-25T15:38:39.272Z,55.73
2023-04-25T15:41:10.148Z,55.62
2023-04-25T15:43:40.953Z,55.55
2023-04-25T15:46:11.736Z,55.46
2023-04-25T15:48:42.640Z,55.51
2023-04-25T15:51:13.319Z,55.49
2023-04-25T15:53:44.031Z,55.52
2023-04-25T15:56:14.711Z,55.50
2023-04-25T15:58:45.474Z,55.47
2023-04-25T16:01:16.645Z,55.39
2023-04-25T16:03:47.539Z,55.37
2023-04-25T16:06:18.492Z,55.44
2023-04-25T16:08:49.304Z,55.43
2023-04-25T16:11:20.029Z,55.44
2023-04-25T16:13:51.044Z,55.39
2023-04-25T16:16:21.974Z,55.36
2023-04-25T16:18:52.632Z,55.32
2023-04-25T16:21:23.338Z,55.44
2023-04-25T16:23:54.080Z,55.41
2023-04-25T16:26:24.777Z,55.40
2023-04-25T16:28:55.489Z,55.48
2023-04-25T16:31:26.583Z,55.51
2023-04-25T16:33:57.490Z,55.35
2023-04-25T16:36:28.242Z,55.35
2023-04-25T16:38:58.988Z,55.39
2023-04-25T16:41:30.115Z,55.53
2023-04-25T16:44:00.902Z,55.63
2023-04-25T16:46:32.094Z,55.48
2023-04-25T16:49:03.281Z,55.55
2023-04-25T16:51:34.049Z,55.57
2023-04-25T16:54:05.034Z,55.44
2023-04-25T16:56:35.750Z,55.44
2023-04-25T16:59:06.553Z,55.50
2023-04-25T17:01:37.468Z,55.52
2023-04-25T17:04:08.448Z,55.63
2023-04-25T17:06:39.555Z,55.55
2023-04-25T17:09:10.623Z,55.64
2023-04-25T17:11:41.327Z,55.60
2023-04-25T17:14:12.081Z,55.62
2023-04-25T17:16:42.885Z,55.70
2023-04-25T17:19:13.628Z,55.63
2023-04-25T17:21:45.130Z,55.70
2023-04-25T17:24:16.081Z,55.61
2023-04-25T17:26:48.740Z,55.72
2023-04-25T17:29:21.774Z,55.85
2023-04-25T17:31:53.657Z,55.83
2023-04-25T17:34:24.425Z,55.80
2023-04-25T17:36:55.159Z,55.85
2023-04-25T17:39:27.603Z,55.84
2023-04-25T17:42:00.867Z,55.87
2023-04-25T17:44:32.135Z,55.86
2023-04-25T17:47:03.804Z,55.82
2023-04-25T17:49:34.689Z,55.72
2023-04-25T17:52:06.510Z,55.62
2023-04-25T17:54:37.292Z,55.56
2023-04-25T17:57:08.185Z,55.52
2023-04-25T17:59:39.003Z,55.68
2023-04-25T18:02:10.945Z,55.80
2023-04-25T18:04:41.753Z,55.90
2023-04-25T18:07:12.467Z,55.85
2023-04-25T18:09:43.259Z,55.97
2023-04-25T18:12:15.362Z,55.89
2023-04-25T18:14:46.306Z,55.87
2023-04-25T18:17:17.308Z,55.88
2023-04-25T18:19:48.971Z,56.07
2023-04-25T18:22:19.741Z,56.03
2023-04-25T18:24:51.441Z,56.31
2023-04-25T18:27:22.166Z,55.97
2023-04-25T18:29:53.615Z,56.09
2023-04-25T18:32:24.373Z,56.12
2023-04-25T18:34:55.127Z,56.11
2023-04-25T18:37:25.846Z,56.25
2023-04-25T18:39:56.575Z,56.10
2023-04-25T18:42:27.450Z,56.06
2023-04-25T18:44:58.181Z,56.17
2023-04-25T18:47:29.122Z,56.10
2023-04-25T18:49:59.824Z,56.06
2023-04-25T18:52:30.600Z,56.15
2023-04-25T18:55:01.392Z,56.13
2023-04-25T18:57:32.101Z,56.09
2023-04-25T19:00:05.597Z,56.22
2023-04-25T19:02:38.131Z,56.22
2023-04-25T19:05:10.291Z,56.24
2023-04-25T19:07:41.587Z,56.23
2023-04-25T19:10:13.165Z,56.16
2023-04-25T19:12:43.863Z,56.20
2023-04-25T19:15:14.822Z,56.33
2023-04-25T19:17:45.636Z,56.28
2023-04-25T19:20:16.850Z,56.23
2023-04-25T19:22:48.383Z,56.19
2023-04-25T19:25:19.117Z,56.21
2023-04-25T19:27:49.839Z,56.33
2023-04-25T19:30:20.836Z,56.32
2023-04-25T19:32:52.186Z,56.26
2023-04-25T19:35:23.508Z,56.29
2023-04-25T19:37:54.281Z,56.42
2023-04-25T19:40:25.064Z,56.28
2023-04-25T19:42:55.685Z,56.42
2023-04-25T19:45:26.576Z,56.36
2023-04-25T19:47:57.260Z,56.59
2023-04-25T19:50:28.399Z,56.53
2023-04-25T19:52:59.370Z,56.55
2023-04-25T19:55:30.188Z,56.36
2023-04-25T19:58:01.913Z,56.50
2023-04-25T20:00:32.762Z,56.55
2023-04-25T20:03:04.622Z,56.49
2023-04-25T20:05:36.042Z,56.35
2023-04-25T20:08:06.998Z,56.48
2023-04-25T20:10:37.802Z,56.54
2023-04-25T20:13:08.730Z,56.66
2023-04-25T20:15:39.573Z,56.45
2023-04-25T20:18:10.371Z,56.66
2023-04-25T20:20:41.245Z,56.66
2023-04-25T20:23:12.227Z,56.60
2023-04-25T20:25:43.616Z,56.76
2023-04-25T20:28:14.260Z,56.64
2023-04-25T20:30:45.111Z,56.61
2023-04-25T20:33:16.006Z,56.51
2023-04-25T20:35:48.503Z,56.67
2023-04-25T20:38:19.197Z,56.65
2023-04-25T20:40:51.021Z,56.75
2023-04-25T20:43:22.355Z,56.68
2023-04-25T20:45:53.487Z,56.51
2023-04-25T20:48:24.385Z,56.55
2023-04-25T20:50:55.204Z,56.61
2023-04-25T20:53:26.239Z,56.75
2023-04-25T20:55:57.591Z,56.68
2023-04-25T20:58:28.826Z,56.67
2023-04-25T21:00:59.960Z,56.64
2023-04-25T21:03:31.188Z,56.60
2023-04-25T21:06:02.247Z,56.60
2023-04-25T21:08:32.992Z,56.80
2023-04-25T21:11:03.980Z,56.74
2023-04-25T21:13:34.834Z,56.63
2023-04-25T21:16:06.779Z,56.81
2023-04-25T21:18:37.419Z,56.85
2023-04-25T21:21:08.524Z,56.72
2023-04-25T21:23:39.229Z,56.82
2023-04-25T21:26:10.028Z,56.75
2023-04-25T21:28:40.705Z,56.62
2023-04-25T21:31:11.528Z,56.68
2023-04-25T21:33:42.490Z,56.68
2023-04-25T21:36:13.179Z,56.84
2023-04-25T21:38:43.858Z,56.84
2023-04-25T21:41:14.705Z,56.87
2023-04-25T21:43:45.512Z,56.93
2023-04-25T21:46:23.410Z,56.88
2023-04-25T21:48:55.108Z,56.80
2023-04-25T21:51:26.109Z,56.84
2023-04-25T21:53:56.909Z,56.93
2023-04-25T21:56:27.694Z,56.81
2023-04-25T21:59:06.602Z,56.92
2023-04-25T22:01:38.841Z,56.82
2023-04-25T22:04:10.021Z,57.03
2023-04-25T22:06:40.917Z,57.07
2023-04-25T22:09:11.732Z,57.00
2023-04-25T22:11:43.178Z,56.99
2023-04-25T22:14:13.861Z,57.00
2023-04-25T22:16:44.716Z,56.97
2023-04-25T22:19:15.391Z,57.04
2023-04-25T22:21:46.110Z,57.13
2023-04-25T22:24:17.145Z,57.19
2023-04-25T22:26:48.167Z,56.94
2023-04-25T22:29:18.962Z,57.01
2023-04-25T22:31:49.796Z,57.00
2023-04-25T22:34:20.722Z,56.85
2023-04-25T22:36:51.460Z,57.13
2023-04-25T22:39:23.322Z,57.15
2023-04-25T22:41:54.533Z,57.01
2023-04-25T22:44:25.184Z,57.12
2023-04-25T22:46:56.018Z,57.11
2023-04-25T22:49:26.666Z,57.14
2023-04-25T22:51:57.764Z,57.06
2023-04-25T22:54:28.713Z,57.12
2023-04-25T22:56:59.929Z,57.09
2023-04-25T22:59:31.103Z,57.24
2023-04-25T23:02:02.019Z,57.22
2023-04-25T23:04:32.859Z,57.14
2023-04-25T23:07:03.707Z,57.17
2023-04-25T23:09:34.414Z,57.24
2023-04-25T23:12:05.336Z,57.33
2023-04-25T23:14:36.129Z,57.08
2023-04-25T23:17:07.037Z,57.13
2023-04-25T23:19:37.846Z,57.27
2023-04-25T23:22:08.695Z,57.23
2023-04-25T23:24:40.534Z,57.30
2023-04-25T23:27:11.320Z,57.18
2023-04-25T23:29:42.110Z,57.29
2023-04-25T23:32:13.722Z,57.15
2023-04-25T23:34:44.471Z,57.37
2023-04-25T23:37:15.189Z,57.31
2023-04-25T23:39:50.669Z,57.10
2023-04-25T23:42:21.589Z,57.17
2023-04-25T23:44:52.262Z,57.26
2023-04-25T23:47:23.074Z,57.22
2023-04-25T23:49:54.012Z,57.17
2023-04-25T23:52:24.762Z,57.28
2023-04-25T23:54:55.611Z,57.23
2023-04-25T23:57:26.556Z,57.16
2023-04-25T23:59:57.721Z,57.38
